createdAt,value
2023-03-22T00:03:17.286Z,78.45
2023-03-22T00:10:39.085Z,74.93
2023-03-22T00:17:57.764Z,75.00
2023-03-22T00:25:16.113Z,70.90
2023-03-22T00:32:37.477Z,74.22
2023-03-22T00:39:55.666Z,72.80
2023-03-22T00:47:14.369Z,70.00
2023-03-22T00:54:35.147Z,70.95
2023-03-22T01:01:53.526Z,64.93
2023-03-22T01:09:14.920Z,69.15
2023-03-22T01:16:34.750Z,67.75
2023-03-22T01:23:53.175Z,64.07
2023-03-22T01:31:11.397Z,65.78
2023-03-22T01:38:31.286Z,63.65
2023-03-22T01:45:52.713Z,63.35
2023-03-22T01:53:19.097Z,66.22
2023-03-22T02:00:40.341Z,47.70
2023-03-22T02:08:17.151Z,65.72
2023-03-22T02:15:56.968Z,60.22
2023-03-22T02:24:27.881Z,60.10
2023-03-22T02:32:31.776Z,64.07
2023-03-22T02:39:53.398Z,57.83
2023-03-22T02:47:21.589Z,60.92
2023-03-22T02:54:44.683Z,55.95
2023-03-22T03:02:04.928Z,59.22
2023-03-22T03:09:23.325Z,60.45
2023-03-22T03:16:41.702Z,58.70
2023-03-22T03:24:11.543Z,62.05
2023-03-22T03:31:34.079Z,57.75
2023-03-22T03:38:54.068Z,59.53
2023-03-22T03:46:13.985Z,57.33
2023-03-22T03:53:32.781Z,57.17
2023-03-22T04:00:51.951Z,60.78
2023-03-22T04:08:31.328Z,59.33
2023-03-22T04:15:54.125Z,56.95
2023-03-22T04:23:13.353Z,44.47
2023-03-22T04:30:36.595Z,55.60
2023-03-22T04:38:14.651Z,78.15
2023-03-22T04:45:35.436Z,61.50
2023-03-22T04:52:56.224Z,70.28
2023-03-22T05:00:18.723Z,78.55
2023-03-22T05:07:39.430Z,73.15
2023-03-22T05:15:01.412Z,85.07
2023-03-22T05:22:25.234Z,73.85
2023-03-22T05:29:47.150Z,83.13
2023-03-22T05:37:14.263Z,79.95
2023-03-22T05:44:39.926Z,76.25
2023-03-22T05:52:06.427Z,77.67
2023-03-22T05:59:43.221Z,72.88
2023-03-22T06:07:10.454Z,74.68
2023-03-22T06:14:39.584Z,72.63
2023-03-22T06:22:26.406Z,71.15
2023-03-22T06:29:49.834Z,74.07
2023-03-22T06:37:12.521Z,62.60
2023-03-22T06:44:35.031Z,62.95
2023-03-22T06:52:12.689Z,58.75
2023-03-22T07:04:20.246Z,50.92
2023-03-22T07:19:01.720Z,44.28
2023-03-22T07:26:22.329Z,45.85
2023-03-22T07:33:42.048Z,45.35
2023-03-22T07:41:00.282Z,45.15
2023-03-22T07:48:37.175Z,42.25
2023-03-22T07:56:18.601Z,42.17
2023-03-22T08:03:39.673Z,39.92
2023-03-22T08:11:26.949Z,37.60
2023-03-22T08:18:46.625Z,33.00
2023-03-22T08:26:05.495Z,32.17
2023-03-22T08:33:25.558Z,33.63
2023-03-22T08:40:46.885Z,33.03
2023-03-22T08:48:06.137Z,31.50
2023-03-22T08:55:36.903Z,32.08
2023-03-22T09:03:05.922Z,28.85
2023-03-22T09:10:24.578Z,30.95
2023-03-22T09:17:43.221Z,30.70
2023-03-22T09:25:02.901Z,28.55
2023-03-22T09:32:21.659Z,27.45
2023-03-22T09:39:46.724Z,24.95
2023-03-22T09:47:09.317Z,23.15
2023-03-22T09:54:30.878Z,26.83
2023-03-22T10:01:52.993Z,22.67
2023-03-22T10:09:16.116Z,28.13
2023-03-22T10:23:53.571Z,19.80
2023-03-22T10:31:15.018Z,17.58
2023-03-22T10:38:35.690Z,18.52
2023-03-22T10:45:55.028Z,17.48
2023-03-22T10:53:18.748Z,18.30
2023-03-22T11:00:40.626Z,24.17
2023-03-22T11:08:00.162Z,18.40
2023-03-22T11:15:24.631Z,18.75
2023-03-22T11:22:43.792Z,16.30
2023-03-22T11:30:10.183Z,21.50
2023-03-22T11:37:30.222Z,16.52
2023-03-22T11:44:49.779Z,18.85
2023-03-22T11:52:12.834Z,19.77
2023-03-22T11:59:38.800Z,15.18
2023-03-22T12:06:58.462Z,19.02
2023-03-22T12:14:18.324Z,17.17
2023-03-22T12:21:38.527Z,17.08
2023-03-22T12:28:58.089Z,18.10
2023-03-22T12:36:17.200Z,15.40
2023-03-22T12:43:49.135Z,15.55
2023-03-22T12:51:08.180Z,12.82
2023-03-22T12:58:27.066Z,20.02
2023-03-22T13:05:48.224Z,13.82
2023-03-22T13:13:27.874Z,15.38
2023-03-22T13:21:08.137Z,12.75
2023-03-22T13:28:27.381Z,14.40
2023-03-22T13:35:46.740Z,10.45
2023-03-22T13:43:24.410Z,11.68
2023-03-22T13:50:45.134Z,11.73
2023-03-22T13:58:05.776Z,8.02
2023-03-22T14:05:26.904Z,11.82
2023-03-22T14:12:50.470Z,8.50
2023-03-22T14:20:11.100Z,13.27
